Norfolk, VA

4:48 AM EST on February 06, 2016 (GMT -0500)
APRSWXNET | | Change Station
CLOSE
Current Station
Personal Weather Station
Location: Norfolk, VA
Elevation: 6 ft
Nearby Weather Stations

Elev 6 ft 36.89 °N, 76.21 °W | Updated 18 minutes ago

Clear
Clear
37 °F
Feels Like 37 °F
N
1
Wind Variable Wind from East
Gusts 6.0 mph

Today
High -- | Low -- °F
--% Chance of Precip.
Yesterday
High -- | Low -- °F
Precip. -- in
Pressure 30.41 in
Visibility 10.0 miles
Clouds Clear
Windchill 37 °F
Dew Point 26 °F
Humidity 65%
Rainfall in
Snow Depth Not available.
7:03 AM 5:35 PM
Waning Crescent, 6% visible
METAR KORF 060851Z AUTO 04008KT 10SM CLR 03/M04 A3041 RMK AO2 SLP298 T00281044 51005 TSNO
Pressure 30.41 in
Visibility 10.0 miles
Clouds Clear
Windchill 37 °F
Dew Point 26 °F
Humidity 65%
Rainfall in
Snow Depth Not available.
7:03 AM 5:35 PM
Waning Crescent, 6% visible
METAR KORF 060851Z AUTO 04008KT 10SM CLR 03/M04 A3041 RMK AO2 SLP298 T00281044 51005 TSNO

10-Day Weather Forecast

Almanac

Astronomy

Feb. 06, 2016 Rise Set
Actual Time
Civil Twilight
Nautical Twilight
Astronomical Twilight
Moon
Length of Visible Light
Length of Day
Tomorrow will be .
, % of the Moon is Illuminated

Today's Extremes

State Highs State Lows

Community

WunderPhotos

Upload Photos

1,890,933 photos uploaded!

WunderBlog® & News

Nearby

Air Quality

  Air Quality AQ Index Pollutant
Not available.

Snow Depth

Station Depth Elevation

Earthquake Activity

City Distance Mag. Time & Date
Minimum magnitude displayed is 2.5.

Coastal Water Temperatures

Place Temperature

Stations

Nearby Weather Stations

Station Location Temp. Windchill Dew Point Humidity Wind Precip. Elev Updated Type
                   

Watches & Warnings

There are currently no watches in effect.